sensor_id;sensor_type;location;lat;lon;timestamp;P1;durP1;ratioP1;P2;durP2;ratioP2
21521;SDS011;10922;45.572;10.002;2023-04-01T00:00:29;5.63;;;4.13;;
21521;SDS011;10922;45.572;10.002;2023-04-01T00:02:55;4.97;;;4.30;;
21521;SDS011;10922;45.572;10.002;2023-04-01T00:05:22;4.67;;;3.70;;
21521;SDS011;10922;45.572;10.002;2023-04-01T00:07:49;4.50;;;4.10;;
21521;SDS011;10922;45.572;10.002;2023-04-01T00:10:15;4.63;;;4.23;;
21521;SDS011;10922;45.572;10.002;2023-04-01T00:12:42;4.37;;;3.97;;
21521;SDS011;10922;45.572;10.002;2023-04-01T00:15:10;6.23;;;4.10;;
21521;SDS011;10922;45.572;10.002;2023-04-01T00:17:37;5.43;;;3.97;;
21521;SDS011;10922;45.572;10.002;2023-04-01T00:20:03;4.57;;;4.13;;
21521;SDS011;10922;45.572;10.002;2023-04-01T00:22:32;7.67;;;4.63;;
21521;SDS011;10922;45.572;10.002;2023-04-01T00:24:58;5.33;;;4.10;;
21521;SDS011;10922;45.572;10.002;2023-04-01T00:27:24;3.63;;;3.33;;
21521;SDS011;10922;45.572;10.002;2023-04-01T00:29:51;3.77;;;3.37;;
21521;SDS011;10922;45.572;10.002;2023-04-01T00:32:16;4.57;;;3.13;;
21521;SDS011;10922;45.572;10.002;2023-04-01T00:34:42;3.50;;;3.07;;
21521;SDS011;10922;45.572;10.002;2023-04-01T00:37:09;7.77;;;4.63;;
21521;SDS011;10922;45.572;10.002;2023-04-01T00:39:35;4.13;;;3.83;;
21521;SDS011;10922;45.572;10.002;2023-04-01T00:42:01;4.23;;;3.53;;
21521;SDS011;10922;45.572;10.002;2023-04-01T00:44:31;4.53;;;4.13;;
21521;SDS011;10922;45.572;10.002;2023-04-01T00:46:59;7.57;;;3.63;;
21521;SDS011;10922;45.572;10.002;2023-04-01T00:49:27;3.70;;;3.40;;
21521;SDS011;10922;45.572;10.002;2023-04-01T00:51:57;4.47;;;3.43;;
21521;SDS011;10922;45.572;10.002;2023-04-01T00:54:27;4.37;;;3.40;;
21521;SDS011;10922;45.572;10.002;2023-04-01T00:56:55;6.23;;;4.00;;
21521;SDS011;10922;45.572;10.002;2023-04-01T00:59:33;3.07;;;2.77;;
21521;SDS011;10922;45.572;10.002;2023-04-01T01:02:07;3.60;;;3.30;;
21521;SDS011;10922;45.572;10.002;2023-04-01T01:04:35;5.43;;;4.30;;
21521;SDS011;10922;45.572;10.002;2023-04-01T01:12:37;15.57;;;8.37;;
21521;SDS011;10922;45.572;10.002;2023-04-01T01:15:26;6.03;;;4.40;;
21521;SDS011;10922;45.572;10.002;2023-04-01T01:23:56;5.17;;;3.53;;
21521;SDS011;10922;45.572;10.002;2023-04-01T01:32:25;3.00;;;2.70;;
21521;SDS011;10922;45.572;10.002;2023-04-01T01:35:49;2.53;;;2.30;;
21521;SDS011;10922;45.572;10.002;2023-04-01T01:38:13;6.63;;;4.07;;
21521;SDS011;10922;45.572;10.002;2023-04-01T01:40:48;4.07;;;2.67;;
21521;SDS011;10922;45.572;10.002;2023-04-01T01:43:19;4.60;;;3.40;;
21521;SDS011;10922;45.572;10.002;2023-04-01T01:45:49;9.57;;;5.83;;
21521;SDS011;10922;45.572;10.002;2023-04-01T01:48:19;3.40;;;2.87;;
21521;SDS011;10922;45.572;10.002;2023-04-01T01:50:45;7.57;;;4.97;;
21521;SDS011;10922;45.572;10.002;2023-04-01T01:53:13;3.10;;;2.80;;
21521;SDS011;10922;45.572;10.002;2023-04-01T01:55:46;5.93;;;2.90;;
21521;SDS011;10922;45.572;10.002;2023-04-01T01:58:28;2.80;;;2.60;;
21521;SDS011;10922;45.572;10.002;2023-04-01T02:01:06;4.33;;;2.47;;
21521;SDS011;10922;45.572;10.002;2023-04-01T02:03:42;2.83;;;2.53;;
21521;SDS011;10922;45.572;10.002;2023-04-01T02:06:11;4.07;;;3.00;;
21521;SDS011;10922;45.572;10.002;2023-04-01T02:08:44;4.67;;;3.03;;
21521;SDS011;10922;45.572;10.002;2023-04-01T02:11:18;2.67;;;2.47;;
21521;SDS011;10922;45.572;10.002;2023-04-01T02:16:23;2.93;;;2.73;;
21521;SDS011;10922;45.572;10.002;2023-04-01T02:18:59;3.47;;;2.93;;
21521;SDS011;10922;45.572;10.002;2023-04-01T02:21:27;5.17;;;2.60;;
21521;SDS011;10922;45.572;10.002;2023-04-01T02:23:56;2.90;;;2.60;;
21521;SDS011;10922;45.572;10.002;2023-04-01T02:26:25;4.60;;;2.57;;
21521;SDS011;10922;45.572;10.002;2023-04-01T02:28:52;3.43;;;2.67;;
21521;SDS011;10922;45.572;10.002;2023-04-01T02:31:19;3.73;;;2.53;;
21521;SDS011;10922;45.572;10.002;2023-04-01T02:33:46;3.33;;;2.70;;
21521;SDS011;10922;45.572;10.002;2023-04-01T02:36:13;1.97;;;1.87;;
21521;SDS011;10922;45.572;10.002;2023-04-01T02:38:41;2.70;;;2.40;;
21521;SDS011;10922;45.572;10.002;2023-04-01T02:41:07;2.73;;;2.33;;
21521;SDS011;10922;45.572;10.002;2023-04-01T02:43:33;2.80;;;2.33;;
21521;SDS011;10922;45.572;10.002;2023-04-01T02:45:59;4.30;;;2.60;;
21521;SDS011;10922;45.572;10.002;2023-04-01T02:48:26;2.90;;;2.63;;
21521;SDS011;10922;45.572;10.002;2023-04-01T02:50:52;2.73;;;2.53;;
21521;SDS011;10922;45.572;10.002;2023-04-01T02:53:18;3.43;;;2.50;;
21521;SDS011;10922;45.572;10.002;2023-04-01T02:55:43;2.83;;;2.30;;
21521;SDS011;10922;45.572;10.002;2023-04-01T02:58:10;2.83;;;2.30;;
21521;SDS011;10922;45.572;10.002;2023-04-01T03:00:36;3.00;;;2.70;;
21521;SDS011;10922;45.572;10.002;2023-04-01T03:03:02;3.77;;;2.60;;
21521;SDS011;10922;45.572;10.002;2023-04-01T03:05:28;3.23;;;2.70;;
21521;SDS011;10922;45.572;10.002;2023-04-01T03:07:54;2.87;;;2.27;;
21521;SDS011;10922;45.572;10.002;2023-04-01T03:10:22;2.97;;;2.57;;
21521;SDS011;10922;45.572;10.002;2023-04-01T03:12:49;2.73;;;2.40;;
21521;SDS011;10922;45.572;10.002;2023-04-01T03:15:16;2.60;;;2.40;;
21521;SDS011;10922;45.572;10.002;2023-04-01T03:17:42;2.77;;;2.57;;
21521;SDS011;10922;45.572;10.002;2023-04-01T03:20:09;2.87;;;2.40;;
21521;SDS011;10922;45.572;10.002;2023-04-01T03:22:36;2.33;;;2.10;;
21521;SDS011;10922;45.572;10.002;2023-04-01T03:25:04;1.70;;;1.60;;
21521;SDS011;10922;45.572;10.002;2023-04-01T03:27:37;2.27;;;2.00;;
21521;SDS011;10922;45.572;10.002;2023-04-01T03:30:06;3.43;;;1.73;;
21521;SDS011;10922;45.572;10.002;2023-04-01T03:32:37;1.63;;;1.53;;
21521;SDS011;10922;45.572;10.002;2023-04-01T03:35:05;2.77;;;1.80;;
21521;SDS011;10922;45.572;10.002;2023-04-01T03:37:31;1.80;;;1.70;;
21521;SDS011;10922;45.572;10.002;2023-04-01T03:39:57;1.40;;;1.30;;
21521;SDS011;10922;45.572;10.002;2023-04-01T03:42:25;1.73;;;1.63;;
21521;SDS011;10922;45.572;10.002;2023-04-01T03:44:52;2.00;;;1.70;;
21521;SDS011;10922;45.572;10.002;2023-04-01T03:47:18;1.60;;;1.50;;
21521;SDS011;10922;45.572;10.002;2023-04-01T03:49:46;2.90;;;1.73;;
21521;SDS011;10922;45.572;10.002;2023-04-01T03:52:13;1.87;;;1.53;;
21521;SDS011;10922;45.572;10.002;2023-04-01T03:54:40;1.83;;;1.73;;
21521;SDS011;10922;45.572;10.002;2023-04-01T03:57:07;1.97;;;1.77;;
21521;SDS011;10922;45.572;10.002;2023-04-01T03:59:35;2.23;;;1.80;;
21521;SDS011;10922;45.572;10.002;2023-04-01T04:02:01;3.97;;;1.97;;
21521;SDS011;10922;45.572;10.002;2023-04-01T04:04:26;6.53;;;2.23;;
21521;SDS011;10922;45.572;10.002;2023-04-01T04:06:52;3.30;;;1.90;;
21521;SDS011;10922;45.572;10.002;2023-04-01T04:09:21;7.30;;;2.50;;
21521;SDS011;10922;45.572;10.002;2023-04-01T04:12:01;2.07;;;1.87;;
21521;SDS011;10922;45.572;10.002;2023-04-01T04:14:35;1.73;;;1.63;;
21521;SDS011;10922;45.572;10.002;2023-04-01T04:17:02;2.30;;;1.67;;
21521;SDS011;10922;45.572;10.002;2023-04-01T04:19:32;1.80;;;1.70;;
21521;SDS011;10922;45.572;10.002;2023-04-01T04:22:02;1.67;;;1.57;;
21521;SDS011;10922;45.572;10.002;2023-04-01T04:24:34;1.60;;;1.50;;
21521;SDS011;10922;45.572;10.002;2023-04-01T04:27:02;1.63;;;1.53;;
21521;SDS011;10922;45.572;10.002;2023-04-01T04:29:31;1.30;;;1.27;;
21521;SDS011;10922;45.572;10.002;2023-04-01T04:31:57;2.07;;;1.30;;
21521;SDS011;10922;45.572;10.002;2023-04-01T04:34:23;3.20;;;1.50;;
21521;SDS011;10922;45.572;10.002;2023-04-01T04:36:48;1.90;;;1.43;;
21521;SDS011;10922;45.572;10.002;2023-04-01T04:39:15;4.13;;;1.57;;
21521;SDS011;10922;45.572;10.002;2023-04-01T04:41:45;1.20;;;1.10;;
21521;SDS011;10922;45.572;10.002;2023-04-01T04:44:10;3.07;;;1.30;;
21521;SDS011;10922;45.572;10.002;2023-04-01T04:46:36;6.77;;;1.47;;
21521;SDS011;10922;45.572;10.002;2023-04-01T04:49:04;1.37;;;1.23;;
21521;SDS011;10922;45.572;10.002;2023-04-01T04:51:30;2.20;;;1.50;;
21521;SDS011;10922;45.572;10.002;2023-04-01T04:53:59;1.27;;;1.17;;
21521;SDS011;10922;45.572;10.002;2023-04-01T04:56:25;1.23;;;1.13;;
21521;SDS011;10922;45.572;10.002;2023-04-01T04:58:51;2.80;;;1.40;;
21521;SDS011;10922;45.572;10.002;2023-04-01T05:01:17;3.97;;;1.50;;
21521;SDS011;10922;45.572;10.002;2023-04-01T05:03:44;2.37;;;1.30;;
21521;SDS011;10922;45.572;10.002;2023-04-01T05:06:11;1.57;;;1.30;;
21521;SDS011;10922;45.572;10.002;2023-04-01T05:08:45;1.47;;;1.37;;
21521;SDS011;10922;45.572;10.002;2023-04-01T05:11:13;1.67;;;1.40;;
21521;SDS011;10922;45.572;10.002;2023-04-01T05:13:42;2.70;;;1.10;;
21521;SDS011;10922;45.572;10.002;2023-04-01T05:16:16;2.87;;;1.53;;
21521;SDS011;10922;45.572;10.002;2023-04-01T05:18:45;2.37;;;1.70;;
21521;SDS011;10922;45.572;10.002;2023-04-01T05:21:13;1.53;;;1.43;;
21521;SDS011;10922;45.572;10.002;2023-04-01T05:23:41;1.40;;;1.30;;
21521;SDS011;10922;45.572;10.002;2023-04-01T05:26:12;2.10;;;1.47;;
21521;SDS011;10922;45.572;10.002;2023-04-01T05:28:44;1.80;;;1.63;;
21521;SDS011;10922;45.572;10.002;2023-04-01T05:31:11;1.40;;;1.30;;
21521;SDS011;10922;45.572;10.002;2023-04-01T05:33:37;2.23;;;1.60;;
21521;SDS011;10922;45.572;10.002;2023-04-01T05:36:10;2.27;;;1.40;;
21521;SDS011;10922;45.572;10.002;2023-04-01T05:38:39;4.13;;;1.50;;
21521;SDS011;10922;45.572;10.002;2023-04-01T05:41:05;1.57;;;1.43;;
21521;SDS011;10922;45.572;10.002;2023-04-01T05:43:37;2.73;;;1.47;;
21521;SDS011;10922;45.572;10.002;2023-04-01T05:46:04;0.90;;;0.90;;
21521;SDS011;10922;45.572;10.002;2023-04-01T05:48:32;1.10;;;1.00;;
21521;SDS011;10922;45.572;10.002;2023-04-01T05:51:00;3.20;;;1.20;;
21521;SDS011;10922;45.572;10.002;2023-04-01T05:53:26;1.43;;;1.00;;
21521;SDS011;10922;45.572;10.002;2023-04-01T05:55:51;1.70;;;1.17;;
21521;SDS011;10922;45.572;10.002;2023-04-01T05:58:17;1.53;;;1.33;;
21521;SDS011;10922;45.572;10.002;2023-04-01T06:00:43;1.03;;;1.00;;
21521;SDS011;10922;45.572;10.002;2023-04-01T06:03:09;2.10;;;1.23;;
21521;SDS011;10922;45.572;10.002;2023-04-01T06:05:39;2.13;;;1.10;;
21521;SDS011;10922;45.572;10.002;2023-04-01T06:08:09;0.73;;;0.73;;
21521;SDS011;10922;45.572;10.002;2023-04-01T06:19:17;0.70;;;0.70;;
21521;SDS011;10922;45.572;10.002;2023-04-01T06:22:02;2.03;;;1.07;;
21521;SDS011;10922;45.572;10.002;2023-04-01T06:29:52;2.03;;;0.70;;
21521;SDS011;10922;45.572;10.002;2023-04-01T06:32:34;0.97;;;0.80;;
21521;SDS011;10922;45.572;10.002;2023-04-01T06:44:14;2.87;;;1.03;;
21521;SDS011;10922;45.572;10.002;2023-04-01T06:46:52;2.63;;;0.80;;
21521;SDS011;10922;45.572;10.002;2023-04-01T06:55:00;1.17;;;0.70;;
21521;SDS011;10922;45.572;10.002;2023-04-01T06:57:41;2.40;;;1.20;;
21521;SDS011;10922;45.572;10.002;2023-04-01T07:00:20;0.70;;;0.70;;
21521;SDS011;10922;45.572;10.002;2023-04-01T07:05:56;0.97;;;0.87;;
21521;SDS011;10922;45.572;10.002;2023-04-01T07:08:28;2.57;;;1.87;;
21521;SDS011;10922;45.572;10.002;2023-04-01T07:11:03;2.13;;;1.23;;
21521;SDS011;10922;45.572;10.002;2023-04-01T07:13:48;0.83;;;0.83;;
21521;SDS011;10922;45.572;10.002;2023-04-01T07:16:37;1.90;;;1.10;;
21521;SDS011;10922;45.572;10.002;2023-04-01T07:19:12;1.40;;;1.03;;
21521;SDS011;10922;45.572;10.002;2023-04-01T07:21:56;1.10;;;0.93;;
21521;SDS011;10922;45.572;10.002;2023-04-01T07:24:36;1.17;;;1.00;;
21521;SDS011;10922;45.572;10.002;2023-04-01T07:27:08;1.70;;;1.60;;
21521;SDS011;10922;45.572;10.002;2023-04-01T07:29:35;2.27;;;1.47;;
21521;SDS011;10922;45.572;10.002;2023-04-01T07:35:24;1.93;;;1.23;;
21521;SDS011;10922;45.572;10.002;2023-04-01T07:41:24;1.63;;;1.10;;
21521;SDS011;10922;45.572;10.002;2023-04-01T07:44:29;1.27;;;1.17;;
21521;SDS011;10922;45.572;10.002;2023-04-01T07:49:48;1.37;;;1.10;;
21521;SDS011;10922;45.572;10.002;2023-04-01T07:54:58;1.87;;;0.90;;
21521;SDS011;10922;45.572;10.002;2023-04-01T08:00:10;2.10;;;0.93;;
21521;SDS011;10922;45.572;10.002;2023-04-01T08:05:29;1.30;;;1.20;;
21521;SDS011;10922;45.572;10.002;2023-04-01T08:16:32;1.20;;;1.10;;
21521;SDS011;10922;45.572;10.002;2023-04-01T08:19:15;1.60;;;1.20;;
21521;SDS011;10922;45.572;10.002;2023-04-01T08:22:10;2.00;;;1.30;;
21521;SDS011;10922;45.572;10.002;2023-04-01T08:24:44;1.60;;;1.30;;
21521;SDS011;10922;45.572;10.002;2023-04-01T08:27:16;1.30;;;1.20;;
21521;SDS011;10922;45.572;10.002;2023-04-01T08:29:50;2.53;;;1.10;;
21521;SDS011;10922;45.572;10.002;2023-04-01T08:32:26;1.40;;;1.30;;
21521;SDS011;10922;45.572;10.002;2023-04-01T08:35:11;1.60;;;1.30;;
21521;SDS011;10922;45.572;10.002;2023-04-01T08:37:41;4.77;;;1.27;;
21521;SDS011;10922;45.572;10.002;2023-04-01T08:57:07;1.20;;;1.10;;
21521;SDS011;10922;45.572;10.002;2023-04-01T09:28:18;1.37;;;1.10;;
21521;SDS011;10922;45.572;10.002;2023-04-01T09:35:50;1.53;;;1.33;;
21521;SDS011;10922;45.572;10.002;2023-04-01T09:38:29;1.70;;;1.60;;
21521;SDS011;10922;45.572;10.002;2023-04-01T09:46:32;2.60;;;1.80;;
21521;SDS011;10922;45.572;10.002;2023-04-01T09:49:23;3.37;;;2.50;;
21521;SDS011;10922;45.572;10.002;2023-04-01T09:52:08;1.83;;;1.73;;
21521;SDS011;10922;45.572;10.002;2023-04-01T10:05:34;2.00;;;1.90;;
21521;SDS011;10922;45.572;10.002;2023-04-01T10:14:13;3.73;;;2.60;;
21521;SDS011;10922;45.572;10.002;2023-04-01T10:19:49;3.93;;;2.10;;
21521;SDS011;10922;45.572;10.002;2023-04-01T10:22:42;3.63;;;2.67;;
21521;SDS011;10922;45.572;10.002;2023-04-01T10:36:41;2.77;;;2.53;;
21521;SDS011;10922;45.572;10.002;2023-04-01T10:42:11;2.73;;;2.53;;
21521;SDS011;10922;45.572;10.002;2023-04-01T10:53:27;2.73;;;2.53;;
21521;SDS011;10922;45.572;10.002;2023-04-01T11:17:42;2.30;;;2.20;;
21521;SDS011;10922;45.572;10.002;2023-04-01T11:29:16;1.90;;;1.80;;
21521;SDS011;10922;45.572;10.002;2023-04-01T11:31:58;1.63;;;1.20;;
21521;SDS011;10922;45.572;10.002;2023-04-01T11:35:09;2.43;;;1.77;;
21521;SDS011;10922;45.572;10.002;2023-04-01T11:41:30;4.20;;;1.40;;
21521;SDS011;10922;45.572;10.002;2023-04-01T12:06:08;1.67;;;1.57;;
21521;SDS011;10922;45.572;10.002;2023-04-01T12:11:34;6.57;;;1.67;;
21521;SDS011;10922;45.572;10.002;2023-04-01T12:14:11;3.93;;;1.80;;
21521;SDS011;10922;45.572;10.002;2023-04-01T12:19:57;1.70;;;1.60;;
21521;SDS011;10922;45.572;10.002;2023-04-01T12:22:43;2.07;;;1.63;;
21521;SDS011;10922;45.572;10.002;2023-04-01T12:25:29;4.63;;;1.10;;
21521;SDS011;10922;45.572;10.002;2023-04-01T12:33:56;3.03;;;1.50;;
21521;SDS011;10922;45.572;10.002;2023-04-01T12:37:04;1.13;;;1.13;;
21521;SDS011;10922;45.572;10.002;2023-04-01T12:45:35;1.10;;;1.10;;
21521;SDS011;10922;45.572;10.002;2023-04-01T12:51:23;1.70;;;0.90;;
21521;SDS011;10922;45.572;10.002;2023-04-01T12:59:45;0.30;;;0.30;;
21521;SDS011;10922;45.572;10.002;2023-04-01T13:02:30;0.30;;;0.30;;
21521;SDS011;10922;45.572;10.002;2023-04-01T13:27:21;0.75;;;0.70;;
21521;SDS011;10922;45.572;10.002;2023-04-01T13:35:35;2.35;;;0.70;;
21521;SDS011;10922;45.572;10.002;2023-04-01T13:44:02;0.75;;;0.70;;
21521;SDS011;10922;45.572;10.002;2023-04-01T13:49:53;0.25;;;0.25;;
21521;SDS011;10922;45.572;10.002;2023-04-01T13:58:13;0.47;;;0.30;;
21521;SDS011;10922;45.572;10.002;2023-04-01T14:06:31;0.50;;;0.50;;
21521;SDS011;10922;45.572;10.002;2023-04-01T14:33:43;0.50;;;0.50;;
21521;SDS011;10922;45.572;10.002;2023-04-01T14:39:57;0.57;;;0.20;;
21521;SDS011;10922;45.572;10.002;2023-04-01T14:47:50;0.88;;;0.70;;
21521;SDS011;10922;45.572;10.002;2023-04-01T14:50:24;4.03;;;0.93;;
21521;SDS011;10922;45.572;10.002;2023-04-01T14:53:11;5.65;;;1.00;;
21521;SDS011;10922;45.572;10.002;2023-04-01T15:01:21;0.57;;;0.57;;
21521;SDS011;10922;45.572;10.002;2023-04-01T15:04:02;0.95;;;0.60;;
21521;SDS011;10922;45.572;10.002;2023-04-01T15:23:15;2.50;;;0.60;;
21521;SDS011;10922;45.572;10.002;2023-04-01T15:25:50;1.30;;;0.60;;
21521;SDS011;10922;45.572;10.002;2023-04-01T15:39:38;0.70;;;0.70;;
21521;SDS011;10922;45.572;10.002;2023-04-01T15:48:10;0.70;;;0.70;;
21521;SDS011;10922;45.572;10.002;2023-04-01T15:50:51;1.95;;;0.57;;
21521;SDS011;10922;45.572;10.002;2023-04-01T15:56:45;0.98;;;0.40;;
21521;SDS011;10922;45.572;10.002;2023-04-01T16:05:05;0.57;;;0.50;;
21521;SDS011;10922;45.572;10.002;2023-04-01T16:07:52;0.70;;;0.55;;
21521;SDS011;10922;45.572;10.002;2023-04-01T16:10:53;0.47;;;0.47;;
21521;SDS011;10922;45.572;10.002;2023-04-01T16:18:54;0.85;;;0.60;;
21521;SDS011;10922;45.572;10.002;2023-04-01T16:27:24;0.33;;;0.33;;
21521;SDS011;10922;45.572;10.002;2023-04-01T16:30:01;1.80;;;0.60;;
21521;SDS011;10922;45.572;10.002;2023-04-01T16:37:55;1.57;;;0.67;;
21521;SDS011;10922;45.572;10.002;2023-04-01T16:56:56;0.70;;;0.70;;
21521;SDS011;10922;45.572;10.002;2023-04-01T17:04:33;2.20;;;0.80;;
21521;SDS011;10922;45.572;10.002;2023-04-01T17:12:35;1.40;;;1.30;;
21521;SDS011;10922;45.572;10.002;2023-04-01T17:15:47;3.70;;;1.23;;
21521;SDS011;10922;45.572;10.002;2023-04-01T17:24:37;5.70;;;1.67;;
21521;SDS011;10922;45.572;10.002;2023-04-01T17:27:42;3.67;;;1.13;;
21521;SDS011;10922;45.572;10.002;2023-04-01T17:30:26;2.87;;;1.40;;
21521;SDS011;10922;45.572;10.002;2023-04-01T17:36:01;1.80;;;1.33;;
21521;SDS011;10922;45.572;10.002;2023-04-01T17:41:13;3.77;;;0.90;;
21521;SDS011;10922;45.572;10.002;2023-04-01T17:52:15;1.67;;;1.50;;
21521;SDS011;10922;45.572;10.002;2023-04-01T17:54:47;3.33;;;1.30;;
21521;SDS011;10922;45.572;10.002;2023-04-01T17:57:39;1.13;;;1.00;;
21521;SDS011;10922;45.572;10.002;2023-04-01T18:11:08;8.07;;;4.07;;
21521;SDS011;10922;45.572;10.002;2023-04-01T18:16:23;5.57;;;1.67;;
21521;SDS011;10922;45.572;10.002;2023-04-01T18:21:57;2.90;;;2.40;;
21521;SDS011;10922;45.572;10.002;2023-04-01T18:24:33;2.43;;;2.10;;
21521;SDS011;10922;45.572;10.002;2023-04-01T18:38:07;5.03;;;3.00;;
21521;SDS011;10922;45.572;10.002;2023-04-01T18:43:38;5.30;;;2.27;;
21521;SDS011;10922;45.572;10.002;2023-04-01T18:54:19;6.03;;;2.13;;
21521;SDS011;10922;45.572;10.002;2023-04-01T18:56:51;5.13;;;2.83;;
21521;SDS011;10922;45.572;10.002;2023-04-01T19:02:31;6.53;;;2.50;;
21521;SDS011;10922;45.572;10.002;2023-04-01T19:07:48;7.40;;;2.50;;
21521;SDS011;10922;45.572;10.002;2023-04-01T19:13:19;4.27;;;2.77;;
21521;SDS011;10922;45.572;10.002;2023-04-01T19:16:00;5.63;;;3.07;;
21521;SDS011;10922;45.572;10.002;2023-04-01T19:21:42;3.70;;;2.80;;
21521;SDS011;10922;45.572;10.002;2023-04-01T19:27:03;5.03;;;2.97;;
21521;SDS011;10922;45.572;10.002;2023-04-01T19:35:30;4.23;;;2.50;;
21521;SDS011;10922;45.572;10.002;2023-04-01T19:38:49;4.23;;;2.60;;
21521;SDS011;10922;45.572;10.002;2023-04-01T19:46:49;2.20;;;2.00;;
21521;SDS011;10922;45.572;10.002;2023-04-01T19:52:33;2.33;;;2.00;;
21521;SDS011;10922;45.572;10.002;2023-04-01T19:57:58;2.90;;;2.17;;
21521;SDS011;10922;45.572;10.002;2023-04-01T20:00:40;6.37;;;2.20;;
21521;SDS011;10922;45.572;10.002;2023-04-01T20:03:24;2.37;;;2.10;;
21521;SDS011;10922;45.572;10.002;2023-04-01T20:14:43;2.00;;;1.53;;
21521;SDS011;10922;45.572;10.002;2023-04-01T20:20:19;1.47;;;1.30;;
21521;SDS011;10922;45.572;10.002;2023-04-01T20:25:43;1.67;;;1.57;;
21521;SDS011;10922;45.572;10.002;2023-04-01T20:41:43;5.63;;;1.53;;
21521;SDS011;10922;45.572;10.002;2023-04-01T20:44:42;1.70;;;1.60;;
21521;SDS011;10922;45.572;10.002;2023-04-01T21:12:01;1.30;;;1.00;;
21521;SDS011;10922;45.572;10.002;2023-04-01T21:15:07;0.80;;;0.80;;
21521;SDS011;10922;45.572;10.002;2023-04-01T21:23:41;1.50;;;1.17;;
21521;SDS011;10922;45.572;10.002;2023-04-01T21:26:26;1.40;;;1.30;;
21521;SDS011;10922;45.572;10.002;2023-04-01T21:29:18;1.97;;;1.63;;
21521;SDS011;10922;45.572;10.002;2023-04-01T21:34:57;1.53;;;1.43;;
21521;SDS011;10922;45.572;10.002;2023-04-01T21:37:42;1.67;;;1.57;;
21521;SDS011;10922;45.572;10.002;2023-04-01T21:54:42;2.60;;;2.00;;
21521;SDS011;10922;45.572;10.002;2023-04-01T22:00:32;1.63;;;1.53;;
21521;SDS011;10922;45.572;10.002;2023-04-01T22:06:22;1.93;;;1.77;;
21521;SDS011;10922;45.572;10.002;2023-04-01T22:09:07;2.23;;;1.87;;
21521;SDS011;10922;45.572;10.002;2023-04-01T22:14:35;3.47;;;2.00;;
21521;SDS011;10922;45.572;10.002;2023-04-01T22:22:56;3.27;;;2.30;;
21521;SDS011;10922;45.572;10.002;2023-04-01T22:25:46;2.50;;;1.80;;
21521;SDS011;10922;45.572;10.002;2023-04-01T22:28:38;2.20;;;2.00;;
21521;SDS011;10922;45.572;10.002;2023-04-01T22:31:28;1.97;;;1.77;;
21521;SDS011;10922;45.572;10.002;2023-04-01T22:34:39;3.10;;;1.80;;
21521;SDS011;10922;45.572;10.002;2023-04-01T22:37:30;1.87;;;1.60;;
21521;SDS011;10922;45.572;10.002;2023-04-01T22:40:10;2.60;;;1.53;;
21521;SDS011;10922;45.572;10.002;2023-04-01T22:50:22;2.43;;;1.40;;
21521;SDS011;10922;45.572;10.002;2023-04-01T22:55:53;2.90;;;1.63;;
21521;SDS011;10922;45.572;10.002;2023-04-01T22:58:26;2.87;;;1.70;;
21521;SDS011;10922;45.572;10.002;2023-04-01T23:01:20;3.90;;;1.60;;
21521;SDS011;10922;45.572;10.002;2023-04-01T23:03:47;2.93;;;1.50;;
21521;SDS011;10922;45.572;10.002;2023-04-01T23:06:20;1.37;;;1.27;;
21521;SDS011;10922;45.572;10.002;2023-04-01T23:12:03;1.57;;;1.47;;
21521;SDS011;10922;45.572;10.002;2023-04-01T23:14:43;6.00;;;1.60;;
21521;SDS011;10922;45.572;10.002;2023-04-01T23:17:36;1.53;;;1.30;;
21521;SDS011;10922;45.572;10.002;2023-04-01T23:26:08;2.17;;;1.70;;
21521;SDS011;10922;45.572;10.002;2023-04-01T23:28:56;3.43;;;1.80;;
21521;SDS011;10922;45.572;10.002;2023-04-01T23:31:25;1.97;;;1.43;;
21521;SDS011;10922;45.572;10.002;2023-04-01T23:34:27;1.57;;;1.47;;
21521;SDS011;10922;45.572;10.002;2023-04-01T23:36:49;1.23;;;1.10;;
21521;SDS011;10922;45.572;10.002;2023-04-01T23:39:22;2.30;;;1.27;;
21521;SDS011;10922;45.572;10.002;2023-04-01T23:42:01;2.60;;;1.50;;
21521;SDS011;10922;45.572;10.002;2023-04-01T23:44:43;1.77;;;1.40;;
21521;SDS011;10922;45.572;10.002;2023-04-01T23:47:12;3.77;;;1.43;;
21521;SDS011;10922;45.572;10.002;2023-04-01T23:49:44;2.33;;;1.50;;
21521;SDS011;10922;45.572;10.002;2023-04-01T23:54:48;3.23;;;1.63;;
21521;SDS011;10922;45.572;10.002;2023-04-01T23:57:26;2.20;;;1.70;;
21521;SDS011;10922;45.572;10.002;2023-04-01T23:59:59;1.90;;;1.20;;
